Angarsk, Russia
Current Conditions -  °F | °C
As of 1:00 AM on Thursday 27 Nov 2014 (Local Time) from UIII Reporting Station
Clear Clear  
Wind Chill: -7°   Ceiling: Unl
Heat Index:   Visibility: 6mi
Dew Point:   Wind: 7mph
Humidity: 78%   Direction: 90°E
Pressure: 29.83"   Gusts: NA
Location:  52.57°N, 103.91°E
Report Text: UIII 261700Z 09003MPS CAVOK M15/M18 Q1010 NOSIG RMK QFE715/095412810360
Loading
Personal Weather Stations






























Interactive Weather Map New forecast layout! Learn more

10-Day Weather Forecast

Advertisements
Track Severe Weather on mobile